Meath Environmental Platform

Observations

Time Sensor AQI SAQ Temp °C Hum % Pres Pa CO μg/m³ H₂S μg/m³ NO μg/m³ NO₂ μg/m³ O₃ μg/m³ SO₂ μg/m³ CO₂e PPM VOC PPM PM1 μg/m³ PM2.5 μg/m³ PM4 μg/m³ PM10 μg/m³ TPS µm
Thursday 13 August 2026
12:01 Trim Patrick St 2 30.6 49 69,523 0 0 0.67 13.15 63.81 16.46 2 7.25 7.97
12:00 Trim Market St 2 31.8 46 63,162 0.15 0 0.61 12.67 43.58 0 0.71 3.14 3.45
12:00 Trim Patrick St 2 30.6 49 69,517 0 1.05 0.67 13.37 61.41 16.15 2 6.48 7.13
11:59 Trim Market St 2 31.8 46 63,041 0 0 0.56 13.23 55.73 0 0.71 4.17 5.22
11:59 Trim Patrick St 2 30.6 49 69,539 0 0 0.67 13.43 64.04 16.28 2.86 8.77 9.64
11:58 Trim Market St 2 31.7 46 62,911 0 0 0.64 13.16 36.69 0 1.43 3.64 4.46
11:58 Trim Patrick St 2 30.6 49 69,543 0 0 0.66 12.6 62.76 16.26 2.86 7.98 8.78
11:57 Trim Market St 2 31.7 47 62,668 0 0 0.57 12.68 59.91 0 0.71 3.11 3.42
11:57 Trim Patrick St 2 30.5 49 69,547 0 0 0.69 13.33 65.12 16.25 2.86 7.23 7.95
11:56 Trim Patrick St 2 30.5 49 69,517 0 0 0.7 13.06 63.01 16.18 2.86 7.99 8.79
11:55 Trim Patrick St 2 30.4 50 69,543 0 0 0.68 13.52 61.97 15.78 2 6.43 7.07
11:54 Trim Market St 2 31.5 47 62,563 0 0 0.61 13.07 46.98 0 0 2.58 2.84
11:54 Trim Patrick St 2 30.4 50 69,545 0 0 0.71 13 62.89 16.09 2 7.16 7.88
11:53 Trim Market St 2 31.4 47 62,468 0 0 0.62 13.23 64.83 0 0.71 3.1 3.41
11:53 Trim Patrick St 2 30.3 50 69,545 0 2.5 0.68 13.45 62.16 15.89 2.86 7.18 7.89
11:52 Trim Market St 2 31.4 47 62,452 0 0 0.59 16.11 53.63 0 0 3.1 3.71
11:52 Trim Patrick St 2 30.3 50 69,567 0 3.22 0.65 12.94 59.38 15.77 2 7.18 7.9
11:51 Trim Market St 2 31.3 47 62,590 0 0 0.59 13.14 62.04 0 0.71 3.1 3.42
11:51 Trim Patrick St 2 30.2 50 69,569 0 1.73 0.59 13.42 63.55 15.91 2.86 7.95 8.75
11:50 Trim Market St 2 31.3 47 62,513 0 0 0.58 11.86 56.67 0 0 3.11 3.42